createdAt,value
2018-08-31T00:02:36.422Z,2.33
2018-08-31T00:05:46.970Z,2.10
2018-08-31T00:08:38.426Z,2.23
2018-08-31T00:13:17.078Z,2.33
2018-08-31T00:15:47.140Z,2.60
2018-08-31T00:18:16.830Z,2.40
2018-08-31T00:20:46.493Z,2.07
2018-08-31T00:23:17.207Z,1.80
2018-08-31T00:28:01.752Z,1.70
2018-08-31T00:30:42.684Z,2.30
2018-08-31T00:33:26.843Z,2.20
2018-08-31T00:36:13.776Z,1.70
2018-08-31T00:38:58.146Z,2.23
2018-08-31T00:43:55.003Z,2.27
2018-08-31T00:46:26.166Z,3.07
2018-08-31T00:48:55.875Z,2.17
2018-08-31T00:51:25.570Z,1.90
2018-08-31T00:53:55.745Z,1.90
2018-08-31T00:56:25.395Z,1.80
2018-08-31T00:58:55.220Z,1.93
2018-08-31T01:01:33.052Z,1.90
2018-08-31T01:04:02.987Z,1.90
2018-08-31T01:06:32.832Z,1.97
2018-08-31T01:09:03.395Z,1.93
2018-08-31T01:11:33.372Z,2.17
2018-08-31T01:14:03.192Z,1.90
2018-08-31T01:16:34.251Z,2.07
2018-08-31T01:19:04.272Z,2.03
2018-08-31T01:21:34.216Z,1.93
2018-08-31T01:24:04.143Z,1.83
2018-08-31T01:26:33.871Z,2.30
2018-08-31T01:29:03.777Z,1.70
2018-08-31T01:31:33.783Z,1.60
2018-08-31T01:34:03.429Z,2.30
2018-08-31T01:36:33.162Z,2.30
2018-08-31T01:39:03.030Z,2.10
2018-08-31T01:41:32.767Z,2.03
2018-08-31T01:44:03.547Z,1.80
2018-08-31T01:46:33.912Z,2.33
2018-08-31T01:49:03.656Z,2.00
2018-08-31T01:51:33.504Z,1.90
2018-08-31T01:54:03.183Z,1.87
2018-08-31T01:56:32.929Z,2.00
2018-08-31T01:59:02.690Z,1.90
2018-08-31T02:01:33.240Z,2.30
2018-08-31T02:04:04.249Z,2.13
2018-08-31T02:06:34.826Z,2.27
2018-08-31T02:09:10.065Z,1.90
2018-08-31T02:11:39.662Z,2.00
2018-08-31T02:14:09.368Z,2.47
2018-08-31T02:16:39.194Z,1.80
2018-08-31T02:19:08.972Z,1.83
2018-08-31T02:21:38.974Z,2.13
2018-08-31T02:24:08.821Z,2.00
2018-08-31T02:26:38.441Z,2.23
2018-08-31T02:29:08.863Z,1.70
2018-08-31T02:31:38.870Z,1.97
2018-08-31T02:34:08.713Z,1.80
2018-08-31T02:36:38.362Z,2.07
2018-08-31T02:39:09.706Z,1.87
2018-08-31T02:41:39.391Z,1.77
2018-08-31T02:44:09.200Z,1.97
2018-08-31T02:46:39.995Z,2.03
2018-08-31T02:49:10.622Z,1.80
2018-08-31T02:51:40.252Z,1.87
2018-08-31T02:54:10.594Z,1.60
2018-08-31T02:56:40.204Z,1.77
2018-08-31T02:59:09.864Z,1.80
2018-08-31T03:01:39.837Z,1.90
2018-08-31T03:04:09.698Z,2.13
2018-08-31T03:06:39.335Z,2.77
2018-08-31T03:09:09.311Z,1.67
2018-08-31T03:11:39.140Z,2.03
2018-08-31T03:14:11.458Z,2.13
2018-08-31T03:16:41.567Z,2.23
2018-08-31T03:19:11.381Z,1.90
2018-08-31T03:21:41.060Z,2.07
2018-08-31T03:24:11.668Z,1.70
2018-08-31T03:26:41.313Z,1.63
2018-08-31T03:29:12.740Z,2.03
2018-08-31T03:31:42.634Z,2.10
2018-08-31T03:34:12.498Z,2.20
2018-08-31T03:36:42.976Z,1.80
2018-08-31T03:39:13.736Z,1.97
2018-08-31T03:41:43.447Z,1.80
2018-08-31T03:44:13.016Z,1.93
2018-08-31T03:46:52.086Z,1.80
2018-08-31T03:49:22.307Z,2.80
2018-08-31T03:51:52.390Z,1.97
2018-08-31T03:54:22.359Z,2.10
2018-08-31T03:56:52.046Z,2.00
2018-08-31T03:59:22.219Z,2.07
2018-08-31T04:01:51.867Z,2.03
2018-08-31T04:04:21.497Z,1.90
2018-08-31T04:06:51.283Z,2.00
2018-08-31T04:09:21.124Z,1.80
2018-08-31T04:11:50.817Z,2.00
2018-08-31T04:14:21.968Z,2.07
2018-08-31T04:16:51.595Z,1.97
2018-08-31T04:19:22.438Z,2.50
2018-08-31T04:21:52.443Z,2.40
2018-08-31T04:24:22.066Z,1.90
2018-08-31T04:26:51.691Z,1.90
2018-08-31T04:29:22.502Z,2.00
2018-08-31T04:31:52.204Z,1.70
2018-08-31T04:34:22.110Z,2.30
2018-08-31T04:36:52.346Z,2.03
2018-08-31T04:39:22.028Z,2.13
2018-08-31T04:41:51.700Z,1.90
2018-08-31T04:44:22.120Z,1.80
2018-08-31T04:46:52.006Z,2.00
2018-08-31T04:49:21.644Z,2.27
2018-08-31T04:51:51.787Z,1.80
2018-08-31T04:54:21.553Z,1.90
2018-08-31T04:56:51.582Z,2.57
2018-08-31T04:59:22.801Z,2.33
2018-08-31T05:01:52.523Z,1.90
2018-08-31T05:04:23.247Z,1.80
2018-08-31T05:06:54.593Z,2.27
2018-08-31T05:09:24.239Z,2.50
2018-08-31T05:11:54.063Z,2.03
2018-08-31T05:14:24.560Z,2.00
2018-08-31T05:16:54.365Z,2.33
2018-08-31T05:19:24.805Z,2.10
2018-08-31T05:21:56.789Z,1.87
2018-08-31T05:24:27.221Z,2.17
2018-08-31T05:26:58.360Z,7.17
2018-08-31T05:29:31.154Z,2.37
2018-08-31T05:32:17.908Z,2.13
2018-08-31T05:34:48.338Z,2.13
2018-08-31T05:37:18.988Z,2.10
2018-08-31T05:39:49.017Z,2.67
2018-08-31T05:42:19.196Z,2.33
2018-08-31T05:44:49.790Z,2.55
2018-08-31T05:47:20.198Z,2.60
2018-08-31T05:49:51.082Z,3.30
2018-08-31T05:52:20.941Z,1.80
2018-08-31T05:54:50.774Z,2.17
2018-08-31T05:57:21.266Z,2.87
2018-08-31T05:59:51.860Z,2.65
2018-08-31T06:02:24.085Z,3.80
2018-08-31T06:04:54.675Z,3.37
2018-08-31T06:07:26.256Z,2.33
2018-08-31T06:09:56.147Z,4.20
2018-08-31T06:12:27.918Z,2.10
2018-08-31T06:14:59.745Z,3.80
2018-08-31T06:17:31.891Z,3.93
2018-08-31T06:20:09.457Z,2.63
2018-08-31T06:22:41.823Z,2.40
2018-08-31T06:25:14.698Z,2.50
2018-08-31T06:27:47.463Z,2.40
2018-08-31T06:30:20.204Z,2.50
2018-08-31T06:32:54.880Z,2.80
2018-08-31T06:35:33.560Z,2.60
2018-08-31T06:38:07.649Z,2.77
2018-08-31T06:40:39.825Z,2.40
2018-08-31T06:43:14.417Z,2.57
2018-08-31T06:45:44.179Z,2.60
2018-08-31T06:48:13.877Z,2.30
2018-08-31T06:50:44.614Z,2.60
2018-08-31T06:53:18.735Z,2.40
2018-08-31T06:55:49.806Z,2.90
2018-08-31T06:58:32.870Z,2.37
2018-08-31T07:01:05.839Z,2.70
2018-08-31T07:03:38.095Z,2.43
2018-08-31T07:06:15.093Z,2.63
2018-08-31T07:08:48.589Z,2.97
2018-08-31T07:11:18.932Z,3.30
2018-08-31T07:14:03.762Z,2.80
2018-08-31T07:16:34.973Z,2.70
2018-08-31T07:19:06.263Z,2.77
2018-08-31T07:21:36.231Z,3.00
2018-08-31T07:24:08.062Z,2.70
2018-08-31T07:26:38.195Z,3.10
2018-08-31T07:29:08.164Z,3.13
2018-08-31T07:31:38.367Z,3.60
2018-08-31T07:34:19.484Z,3.17
2018-08-31T07:36:51.783Z,3.40
2018-08-31T07:39:22.983Z,3.53
2018-08-31T07:41:52.751Z,4.30
2018-08-31T07:44:25.348Z,4.80
2018-08-31T07:46:55.285Z,5.23
2018-08-31T07:49:26.163Z,5.17
2018-08-31T07:51:59.671Z,5.60
2018-08-31T07:54:31.467Z,5.80
2018-08-31T07:57:09.338Z,5.63
2018-08-31T07:59:40.671Z,4.97
2018-08-31T08:02:12.398Z,5.50
2018-08-31T08:04:42.379Z,5.27
2018-08-31T08:07:20.403Z,5.47
2018-08-31T08:09:52.795Z,5.27
2018-08-31T08:12:32.423Z,5.40
2018-08-31T08:15:06.224Z,5.70
2018-08-31T08:17:37.771Z,5.80
2018-08-31T08:20:09.622Z,5.30
2018-08-31T08:22:39.966Z,5.53
2018-08-31T08:25:10.941Z,5.90
2018-08-31T08:27:47.093Z,6.07
2018-08-31T08:30:21.324Z,5.73
2018-08-31T08:32:56.211Z,5.37
2018-08-31T08:35:32.015Z,6.13
2018-08-31T08:38:06.659Z,5.30
2018-08-31T08:40:41.090Z,5.83
2018-08-31T08:43:13.311Z,5.30
2018-08-31T08:45:44.962Z,5.43
2018-08-31T08:48:16.179Z,5.67
2018-08-31T08:50:47.610Z,4.90
2018-08-31T08:53:18.604Z,4.40
2018-08-31T08:55:50.816Z,4.67
2018-08-31T08:58:21.897Z,4.50
2018-08-31T09:00:53.269Z,5.07
2018-08-31T09:03:23.653Z,4.23
2018-08-31T09:05:56.192Z,4.50
2018-08-31T09:08:26.628Z,3.90
2018-08-31T09:10:57.116Z,3.77
2018-08-31T09:13:28.756Z,3.93
2018-08-31T09:16:05.663Z,3.93
2018-08-31T09:18:37.023Z,4.73
2018-08-31T09:21:08.434Z,4.75
2018-08-31T09:23:41.421Z,3.87
2018-08-31T09:26:15.093Z,4.83
2018-08-31T09:28:46.246Z,4.37
2018-08-31T09:31:19.820Z,5.87
2018-08-31T09:33:53.431Z,4.73
2018-08-31T09:36:24.431Z,4.97
2018-08-31T09:38:57.368Z,4.23
2018-08-31T09:41:36.742Z,4.30
2018-08-31T09:44:07.689Z,4.77
2018-08-31T09:46:42.643Z,4.50
2018-08-31T09:49:13.402Z,5.03
2018-08-31T09:51:44.089Z,4.33
2018-08-31T09:54:17.449Z,4.60
2018-08-31T09:56:52.572Z,4.57
2018-08-31T09:59:23.560Z,4.50
2018-08-31T10:01:56.819Z,4.10
2018-08-31T10:04:27.400Z,3.90
2018-08-31T10:06:57.606Z,4.03
2018-08-31T10:09:29.725Z,4.17
2018-08-31T10:12:00.292Z,4.30
2018-08-31T10:14:30.393Z,3.33
2018-08-31T10:17:00.715Z,4.17
2018-08-31T10:19:33.387Z,4.83
2018-08-31T10:22:08.304Z,3.20
2018-08-31T10:24:42.200Z,4.00
2018-08-31T10:27:12.806Z,2.90
2018-08-31T10:29:43.275Z,3.10
2018-08-31T10:32:14.120Z,3.60
2018-08-31T10:34:59.797Z,3.00
2018-08-31T10:37:30.881Z,3.77
2018-08-31T10:40:01.346Z,3.60
2018-08-31T10:42:32.405Z,3.53
2018-08-31T10:45:05.306Z,3.97
2018-08-31T10:47:36.417Z,2.90
2018-08-31T10:50:11.168Z,3.03
2018-08-31T10:52:41.372Z,2.97
2018-08-31T10:55:11.893Z,3.53
2018-08-31T10:57:42.812Z,2.67
2018-08-31T11:00:20.231Z,3.00
2018-08-31T11:02:50.697Z,3.43
2018-08-31T11:05:24.487Z,3.20
2018-08-31T11:07:56.957Z,2.90
2018-08-31T11:10:27.491Z,2.20
2018-08-31T11:12:58.297Z,2.33
2018-08-31T11:15:29.228Z,2.23
2018-08-31T11:18:01.434Z,2.07
2018-08-31T11:20:32.144Z,1.93
2018-08-31T11:23:07.487Z,2.00
2018-08-31T11:25:39.296Z,2.57
2018-08-31T11:28:10.641Z,2.40
2018-08-31T11:30:41.182Z,2.10
2018-08-31T11:33:15.864Z,1.97
2018-08-31T11:35:50.820Z,2.23
2018-08-31T11:38:22.336Z,1.70
2018-08-31T11:40:57.428Z,1.70
2018-08-31T11:43:29.947Z,1.57
2018-08-31T11:46:06.247Z,1.73
2018-08-31T11:48:45.815Z,1.90
2018-08-31T11:51:23.323Z,1.80
2018-08-31T11:54:09.732Z,1.80
2018-08-31T11:56:54.038Z,1.63
2018-08-31T11:59:35.871Z,2.30
2018-08-31T12:02:22.650Z,1.87
2018-08-31T12:05:13.080Z,2.00
2018-08-31T12:07:49.144Z,1.93
2018-08-31T12:10:22.634Z,1.87
2018-08-31T12:12:53.950Z,1.50
2018-08-31T12:15:28.337Z,1.90
2018-08-31T12:18:00.088Z,2.50
2018-08-31T12:20:33.046Z,2.10
2018-08-31T12:23:05.408Z,2.27
2018-08-31T12:25:37.025Z,2.50
2018-08-31T12:28:11.698Z,2.33
2018-08-31T12:30:45.076Z,2.30
2018-08-31T12:33:16.547Z,2.30
2018-08-31T12:35:46.863Z,2.20
2018-08-31T12:38:18.064Z,2.40
2018-08-31T12:40:48.770Z,2.90
2018-08-31T12:43:19.951Z,2.60
2018-08-31T12:45:54.758Z,2.70
2018-08-31T12:48:26.295Z,3.40
2018-08-31T12:51:01.855Z,2.40
2018-08-31T12:53:32.649Z,2.00
2018-08-31T12:56:04.170Z,3.23
2018-08-31T12:58:35.505Z,2.63
2018-08-31T13:01:07.395Z,2.40
2018-08-31T13:03:38.063Z,2.20
2018-08-31T13:06:09.532Z,2.30
2018-08-31T13:08:42.293Z,2.63
2018-08-31T13:11:13.757Z,2.60
2018-08-31T13:13:46.307Z,2.80
2018-08-31T13:16:17.693Z,2.50
2018-08-31T13:18:48.630Z,2.40
2018-08-31T13:21:20.309Z,2.17
2018-08-31T13:23:51.398Z,2.40
2018-08-31T13:26:23.999Z,2.50
2018-08-31T13:28:55.749Z,2.87
2018-08-31T13:31:25.829Z,2.30
2018-08-31T13:33:56.056Z,2.47
2018-08-31T13:36:26.377Z,2.97
2018-08-31T13:38:56.319Z,2.27
2018-08-31T13:41:27.801Z,2.50
2018-08-31T13:43:59.341Z,2.23
2018-08-31T13:46:30.860Z,2.20
2018-08-31T13:49:04.526Z,2.33
2018-08-31T13:51:41.066Z,2.53
2018-08-31T13:54:12.383Z,2.10
2018-08-31T13:56:42.739Z,1.63
2018-08-31T13:59:16.699Z,1.80
2018-08-31T14:01:47.539Z,2.00
2018-08-31T14:04:22.467Z,1.80
2018-08-31T14:06:53.077Z,1.90
2018-08-31T14:09:24.151Z,1.97
2018-08-31T14:11:54.900Z,2.77
2018-08-31T14:14:25.666Z,2.57
2018-08-31T14:16:55.812Z,2.10
2018-08-31T14:19:28.233Z,2.00
2018-08-31T14:22:00.041Z,2.40
2018-08-31T14:24:30.452Z,2.20
2018-08-31T14:27:03.758Z,2.30
2018-08-31T14:29:36.913Z,2.17
2018-08-31T14:32:11.476Z,1.60
2018-08-31T14:34:43.097Z,1.70
2018-08-31T14:37:14.254Z,1.80
2018-08-31T14:39:45.347Z,1.40
2018-08-31T14:42:16.089Z,1.50
2018-08-31T14:44:47.098Z,1.70
2018-08-31T14:47:18.260Z,1.50
2018-08-31T14:49:52.222Z,1.80
2018-08-31T14:52:32.818Z,1.50
2018-08-31T14:55:17.019Z,1.40
2018-08-31T14:57:50.889Z,1.50
2018-08-31T15:00:23.095Z,1.43
2018-08-31T15:02:53.993Z,1.43
2018-08-31T15:05:24.759Z,1.93
2018-08-31T15:07:56.151Z,1.20
2018-08-31T15:10:26.895Z,1.80
2018-08-31T15:12:57.789Z,1.67
2018-08-31T15:15:28.899Z,1.27
2018-08-31T15:18:00.579Z,1.67
2018-08-31T15:20:31.954Z,1.63
2018-08-31T15:23:04.478Z,1.50
2018-08-31T15:25:37.597Z,1.40
2018-08-31T15:28:09.830Z,1.70
2018-08-31T15:30:41.039Z,1.67
2018-08-31T15:33:17.508Z,1.30
2018-08-31T15:35:47.744Z,1.70
2018-08-31T15:38:19.744Z,1.70
2018-08-31T15:40:50.710Z,1.93
2018-08-31T15:43:21.475Z,1.70
2018-08-31T15:45:52.776Z,1.90
2018-08-31T15:48:23.450Z,1.60
2018-08-31T15:50:55.641Z,2.00
2018-08-31T15:53:27.491Z,2.80
2018-08-31T15:55:58.795Z,2.00
2018-08-31T15:58:37.553Z,1.90
2018-08-31T16:01:10.766Z,2.10
2018-08-31T16:03:44.380Z,2.10
2018-08-31T16:06:15.304Z,2.43
2018-08-31T16:08:46.408Z,1.80
2018-08-31T16:11:19.148Z,1.73
2018-08-31T16:13:50.548Z,2.37
2018-08-31T16:16:21.706Z,1.80
2018-08-31T16:18:52.080Z,1.93
2018-08-31T16:21:24.089Z,2.73
2018-08-31T16:23:58.889Z,1.80
2018-08-31T16:26:30.272Z,2.30
2018-08-31T16:29:02.317Z,1.90
2018-08-31T16:31:35.598Z,1.63
2018-08-31T16:34:13.492Z,1.70
2018-08-31T16:36:44.333Z,1.80
2018-08-31T16:39:14.874Z,1.67
2018-08-31T16:41:45.036Z,1.50
2018-08-31T16:44:16.987Z,1.50
2018-08-31T16:46:48.992Z,2.23
2018-08-31T16:49:20.702Z,1.77
2018-08-31T16:51:51.568Z,1.67
2018-08-31T16:54:22.336Z,1.80
2018-08-31T16:56:53.777Z,1.83
2018-08-31T16:59:24.231Z,2.10
2018-08-31T17:01:54.954Z,1.57
2018-08-31T17:04:32.824Z,2.10
2018-08-31T17:07:05.069Z,2.67
2018-08-31T17:09:36.045Z,2.40
2018-08-31T17:12:07.760Z,2.00
2018-08-31T17:14:40.070Z,2.03
2018-08-31T17:17:09.963Z,2.07
2018-08-31T17:19:40.744Z,2.07
2018-08-31T17:22:13.821Z,1.50
2018-08-31T17:24:44.210Z,1.93
2018-08-31T17:27:20.160Z,1.77
2018-08-31T17:29:50.501Z,1.80
2018-08-31T17:32:25.764Z,1.67
2018-08-31T17:35:01.641Z,1.80
2018-08-31T17:37:37.827Z,1.73
2018-08-31T17:40:10.101Z,1.90
2018-08-31T17:42:45.718Z,1.90
2018-08-31T17:45:22.103Z,1.70
2018-08-31T17:47:53.799Z,1.70
2018-08-31T17:50:25.693Z,1.80
2018-08-31T17:52:55.974Z,1.70
2018-08-31T17:55:28.043Z,1.93
2018-08-31T17:57:58.420Z,1.70
2018-08-31T18:00:31.440Z,2.10
2018-08-31T18:03:08.911Z,1.93
2018-08-31T18:05:45.869Z,2.00
2018-08-31T18:08:21.724Z,1.90
2018-08-31T18:10:56.050Z,2.10
2018-08-31T18:13:30.820Z,2.20
2018-08-31T18:16:07.059Z,1.60
2018-08-31T18:18:40.220Z,1.93
2018-08-31T18:21:11.830Z,1.47
2018-08-31T18:23:44.392Z,1.70
2018-08-31T18:26:16.533Z,1.90
2018-08-31T18:28:49.628Z,2.10
2018-08-31T18:31:21.856Z,1.93
2018-08-31T18:33:53.344Z,1.87
2018-08-31T18:36:24.791Z,2.10
2018-08-31T18:38:56.197Z,2.07
2018-08-31T18:41:27.368Z,1.97
2018-08-31T18:44:02.783Z,1.87
2018-08-31T18:46:39.276Z,1.80
2018-08-31T18:49:15.332Z,1.80
2018-08-31T18:51:51.830Z,2.17
2018-08-31T18:54:25.191Z,1.90
2018-08-31T18:57:00.684Z,2.03
2018-08-31T18:59:34.931Z,2.00
2018-08-31T19:02:07.866Z,2.10
2018-08-31T19:04:41.828Z,2.73
2018-08-31T19:07:13.030Z,2.20
2018-08-31T19:09:45.243Z,3.03
2018-08-31T19:12:17.622Z,2.40
2018-08-31T19:14:55.468Z,2.50
2018-08-31T19:17:31.715Z,2.40
2018-08-31T19:20:04.202Z,2.43
2018-08-31T19:22:38.178Z,2.97
2018-08-31T19:25:12.704Z,3.63
2018-08-31T19:27:43.026Z,3.87
2018-08-31T19:30:16.086Z,2.90
2018-08-31T19:32:50.976Z,2.77
2018-08-31T19:35:21.611Z,1.97
2018-08-31T19:37:59.098Z,3.00
2018-08-31T19:40:31.692Z,3.30
2018-08-31T19:43:04.999Z,2.53
2018-08-31T19:45:36.120Z,2.27
2018-08-31T19:48:09.503Z,2.40
2018-08-31T19:50:46.755Z,2.87
2018-08-31T19:53:17.612Z,2.13
2018-08-31T19:55:49.390Z,2.10
2018-08-31T19:58:20.230Z,3.13
2018-08-31T20:00:52.941Z,2.80
2018-08-31T20:03:26.546Z,2.87
2018-08-31T20:05:59.400Z,2.40
2018-08-31T20:08:31.645Z,2.60
2018-08-31T20:11:09.692Z,2.60
2018-08-31T20:13:51.817Z,2.67
2018-08-31T20:16:26.788Z,2.40
2018-08-31T20:19:05.763Z,4.77
2018-08-31T20:21:39.101Z,2.23
2018-08-31T20:24:13.191Z,2.30
2018-08-31T20:26:48.228Z,2.40
2018-08-31T20:29:18.723Z,3.20
2018-08-31T20:31:51.765Z,2.60
2018-08-31T20:34:25.675Z,2.70
2018-08-31T20:36:58.619Z,2.47
2018-08-31T20:39:31.232Z,2.87
2018-08-31T20:42:06.104Z,3.23
2018-08-31T20:44:38.887Z,2.67
2018-08-31T20:47:12.316Z,2.50
2018-08-31T20:49:44.222Z,2.90
2018-08-31T20:52:16.730Z,5.80
2018-08-31T20:54:48.781Z,4.57
2018-08-31T20:57:20.063Z,3.70
2018-08-31T20:59:51.150Z,3.67
2018-08-31T21:02:24.014Z,3.57
2018-08-31T21:04:57.211Z,2.90
2018-08-31T21:07:29.315Z,3.07
2018-08-31T21:10:00.217Z,3.30
2018-08-31T21:12:31.658Z,3.30
2018-08-31T21:15:06.370Z,2.53
2018-08-31T21:17:37.113Z,2.73
2018-08-31T21:20:12.762Z,2.67
2018-08-31T21:22:44.185Z,2.70
2018-08-31T21:25:22.242Z,2.80
2018-08-31T21:27:55.644Z,2.60
2018-08-31T21:30:26.239Z,2.93
2018-08-31T21:33:01.029Z,2.30
2018-08-31T21:35:36.204Z,2.50
2018-08-31T21:38:09.244Z,2.63
2018-08-31T21:40:40.366Z,2.80
2018-08-31T21:43:10.986Z,2.47
2018-08-31T21:45:41.662Z,2.90
2018-08-31T21:48:14.414Z,2.77
2018-08-31T21:50:49.114Z,2.63
2018-08-31T21:53:22.841Z,2.40
2018-08-31T21:55:53.377Z,2.50
2018-08-31T21:58:27.632Z,2.47
2018-08-31T22:01:05.641Z,2.60
2018-08-31T22:03:40.013Z,2.80
2018-08-31T22:06:13.192Z,2.73
2018-08-31T22:08:47.225Z,2.60
2018-08-31T22:11:19.716Z,3.07
2018-08-31T22:13:51.218Z,2.77
2018-08-31T22:16:21.781Z,3.33
2018-08-31T22:18:55.834Z,3.37
2018-08-31T22:21:26.412Z,2.03
2018-08-31T22:23:57.692Z,2.50
2018-08-31T22:26:28.216Z,2.57
2018-08-31T22:29:00.410Z,2.20
2018-08-31T22:31:32.190Z,2.50
2018-08-31T22:34:02.590Z,2.40
2018-08-31T22:36:37.103Z,2.23
2018-08-31T22:39:09.778Z,2.40
2018-08-31T22:41:41.197Z,2.30
2018-08-31T22:45:33.300Z,3.73
2018-08-31T22:48:05.314Z,2.20
2018-08-31T22:50:36.635Z,2.47
2018-08-31T22:53:09.301Z,2.23
2018-08-31T22:55:39.630Z,2.50
2018-08-31T22:58:10.781Z,2.20
2018-08-31T23:00:41.763Z,2.20
2018-08-31T23:03:12.341Z,2.57
2018-08-31T23:05:43.063Z,2.47
2018-08-31T23:08:13.489Z,2.47
2018-08-31T23:10:44.674Z,2.37
2018-08-31T23:13:15.532Z,2.77
2018-08-31T23:15:53.893Z,2.30
2018-08-31T23:18:26.310Z,2.43
2018-08-31T23:21:01.551Z,2.53
2018-08-31T23:23:37.346Z,2.83
2018-08-31T23:26:09.474Z,2.27
2018-08-31T23:28:40.456Z,2.40
2018-08-31T23:31:10.482Z,2.20
2018-08-31T23:33:41.332Z,2.83
2018-08-31T23:36:11.612Z,2.40
2018-08-31T23:38:42.628Z,2.50
2018-08-31T23:41:30.647Z,2.60
2018-08-31T23:44:04.945Z,2.50
2018-08-31T23:46:38.487Z,2.17
2018-08-31T23:49:10.780Z,2.40
2018-08-31T23:51:41.662Z,2.40
2018-08-31T23:54:14.619Z,2.37
2018-08-31T23:56:44.450Z,2.60
2018-08-31T23:59:14.816Z,2.30
